createdAt,value
2019-05-05T00:03:57.971Z,7.97
2019-05-05T00:08:59.657Z,7.85
2019-05-05T00:14:01.631Z,7.73
2019-05-05T00:19:04.749Z,7.74
2019-05-05T00:24:07.839Z,7.61
2019-05-05T00:29:09.658Z,7.58
2019-05-05T00:34:11.536Z,7.50
2019-05-05T00:39:14.978Z,7.41
2019-05-05T00:44:16.982Z,7.37
2019-05-05T00:49:18.853Z,7.35
2019-05-05T00:54:20.443Z,7.32
2019-05-05T00:59:25.202Z,7.33
2019-05-05T01:04:31.621Z,7.24
2019-05-05T01:09:35.121Z,7.09
2019-05-05T01:14:37.007Z,6.99
2019-05-05T01:19:38.689Z,6.94
2019-05-05T01:24:40.362Z,6.85
2019-05-05T01:29:42.266Z,6.73
2019-05-05T01:34:45.958Z,6.72
2019-05-05T01:39:54.126Z,6.68
2019-05-05T01:44:55.615Z,6.62
2019-05-05T01:49:57.202Z,6.58
2019-05-05T01:54:58.688Z,6.56
2019-05-05T02:00:00.419Z,6.54
2019-05-05T02:05:04.561Z,6.52
2019-05-05T02:10:07.712Z,6.32
2019-05-05T02:15:09.785Z,6.28
2019-05-05T02:20:36.724Z,6.25
2019-05-05T02:25:38.706Z,6.18
2019-05-05T02:30:48.168Z,6.17
2019-05-05T02:35:49.847Z,6.18
2019-05-05T02:40:54.634Z,6.08
2019-05-05T02:46:07.401Z,6.00
2019-05-05T02:51:10.654Z,5.88
2019-05-05T02:56:17.927Z,5.82
2019-05-05T03:01:19.907Z,5.80
2019-05-05T03:06:23.679Z,5.81
2019-05-05T03:11:28.847Z,5.75
2019-05-05T03:16:37.066Z,5.65
2019-05-05T03:21:39.948Z,5.61
2019-05-05T03:26:44.242Z,5.48
2019-05-05T03:31:46.922Z,5.45
2019-05-05T03:36:48.794Z,5.38
2019-05-05T03:42:04.960Z,5.30
2019-05-05T03:47:08.059Z,5.22
2019-05-05T03:52:10.033Z,5.14
2019-05-05T03:57:14.082Z,5.17
2019-05-05T04:02:16.293Z,5.11
2019-05-05T04:07:17.962Z,5.15
2019-05-05T04:12:19.701Z,5.07
2019-05-05T04:17:25.914Z,5.01
2019-05-05T04:22:29.606Z,4.95
2019-05-05T04:27:31.080Z,4.93
2019-05-05T04:32:34.728Z,4.88
2019-05-05T04:37:37.041Z,4.91
2019-05-05T04:42:38.592Z,4.85
2019-05-05T04:47:50.806Z,4.85
2019-05-05T04:52:54.182Z,4.78
2019-05-05T04:57:55.891Z,4.80
2019-05-05T05:03:00.302Z,4.76
2019-05-05T05:08:03.368Z,4.61
2019-05-05T05:13:05.370Z,4.60
2019-05-05T05:18:11.331Z,4.64
2019-05-05T05:23:14.184Z,4.68
2019-05-05T05:28:16.098Z,4.67
2019-05-05T05:33:17.623Z,4.73
2019-05-05T05:38:19.105Z,4.79
2019-05-05T05:43:23.028Z,4.88
2019-05-05T05:48:44.593Z,4.86
2019-05-05T05:53:46.071Z,4.99
2019-05-05T05:58:47.546Z,4.96
2019-05-05T06:03:49.015Z,4.92
2019-05-05T06:08:50.490Z,4.88
2019-05-05T06:13:51.971Z,4.87
2019-05-05T06:18:54.254Z,4.85
2019-05-05T06:23:55.903Z,4.86
2019-05-05T06:28:57.491Z,4.81
2019-05-05T06:33:59.696Z,4.76
2019-05-05T06:39:01.641Z,4.74
2019-05-05T06:44:09.981Z,4.78
2019-05-05T06:49:13.635Z,4.83
2019-05-05T06:54:15.354Z,4.91
2019-05-05T06:59:16.914Z,4.92
2019-05-05T07:04:18.394Z,4.95
2019-05-05T07:09:19.858Z,5.01
2019-05-05T07:14:23.497Z,5.03
2019-05-05T07:19:24.875Z,5.07
2019-05-05T07:24:26.344Z,5.08
2019-05-05T07:29:27.827Z,5.14
2019-05-05T07:34:33.415Z,5.10
2019-05-05T07:39:34.851Z,5.11
2019-05-05T07:44:36.338Z,5.09
2019-05-05T07:49:37.867Z,5.11
2019-05-05T07:54:39.378Z,5.03
2019-05-05T07:59:40.961Z,5.05
2019-05-05T08:04:43.779Z,5.14
2019-05-05T08:09:46.539Z,5.10
2019-05-05T08:14:48.232Z,5.17
2019-05-05T08:19:51.810Z,5.17
2019-05-05T08:24:58.017Z,5.17
2019-05-05T08:30:14.364Z,5.23
2019-05-05T08:35:15.986Z,5.26
2019-05-05T08:40:18.874Z,5.29
2019-05-05T08:45:23.753Z,5.34
2019-05-05T08:50:26.965Z,5.42
2019-05-05T08:55:28.831Z,5.38
2019-05-05T09:00:30.326Z,5.37
2019-05-05T09:05:34.297Z,5.37
2019-05-05T09:10:36.056Z,5.39
2019-05-05T09:15:37.820Z,5.46
2019-05-05T09:20:39.418Z,5.47
2019-05-05T09:25:55.045Z,5.44
2019-05-05T09:30:56.522Z,5.50
2019-05-05T09:35:58.561Z,5.54
2019-05-05T09:41:00.030Z,5.61
2019-05-05T09:46:03.753Z,5.59
2019-05-05T09:51:05.130Z,5.58
2019-05-05T09:56:07.172Z,5.61
2019-05-05T10:01:09.102Z,5.62
2019-05-05T10:06:10.580Z,5.76
2019-05-05T10:11:12.059Z,5.80
2019-05-05T10:16:14.307Z,5.79
2019-05-05T10:21:17.759Z,5.75
2019-05-05T10:26:19.463Z,5.72
2019-05-05T10:31:21.142Z,5.62
2019-05-05T10:36:24.476Z,5.64
2019-05-05T10:41:26.340Z,5.67
2019-05-05T10:46:28.051Z,5.72
2019-05-05T10:51:29.592Z,5.79
2019-05-05T10:56:31.060Z,5.82
2019-05-05T11:01:32.535Z,5.82
2019-05-05T11:06:34.160Z,5.79
2019-05-05T11:11:35.705Z,5.83
2019-05-05T11:16:37.376Z,5.84
2019-05-05T11:21:38.955Z,5.89
2019-05-05T11:26:40.534Z,5.97
2019-05-05T11:31:42.130Z,6.02
2019-05-05T11:36:48.313Z,6.03
2019-05-05T11:41:49.938Z,6.12
2019-05-05T11:46:51.930Z,6.15
2019-05-05T11:51:54.502Z,6.13
2019-05-05T11:56:56.213Z,6.24
2019-05-05T12:01:57.691Z,6.31
2019-05-05T12:06:59.178Z,6.37
2019-05-05T12:12:00.712Z,6.40
2019-05-05T12:17:04.450Z,6.47
2019-05-05T12:22:05.925Z,6.55
2019-05-05T12:27:27.543Z,6.69
2019-05-05T12:32:29.045Z,6.84
2019-05-05T12:37:30.634Z,6.88
2019-05-05T12:42:32.439Z,6.95
2019-05-05T12:47:35.876Z,6.96
2019-05-05T12:52:37.383Z,7.03
2019-05-05T12:57:38.871Z,7.06
2019-05-05T13:02:40.559Z,7.16
2019-05-05T13:07:44.136Z,7.30
2019-05-05T13:12:46.277Z,7.35
2019-05-05T13:17:48.907Z,7.38
2019-05-05T13:22:55.060Z,7.41
2019-05-05T13:27:57.413Z,7.48
2019-05-05T13:33:00.238Z,7.60
2019-05-05T13:38:01.715Z,7.60
2019-05-05T13:43:04.253Z,7.61
2019-05-05T13:48:06.481Z,7.61
2019-05-05T13:53:08.158Z,7.66
2019-05-05T13:58:09.844Z,7.70
2019-05-05T14:03:11.526Z,7.71
2019-05-05T14:08:14.733Z,7.72
2019-05-05T14:13:16.804Z,7.78
2019-05-05T14:18:18.459Z,7.86
2019-05-05T14:23:20.240Z,7.90
2019-05-05T14:28:23.466Z,7.95
2019-05-05T14:33:28.702Z,7.97
2019-05-05T14:38:39.230Z,7.88
2019-05-05T14:43:40.712Z,7.81
2019-05-05T14:48:44.083Z,7.79
2019-05-05T14:53:45.737Z,7.79
2019-05-05T14:58:47.675Z,7.77
2019-05-05T15:03:49.246Z,7.72
2019-05-05T15:09:09.221Z,7.69
2019-05-05T15:14:11.013Z,7.67
2019-05-05T15:19:14.517Z,7.62
2019-05-05T15:24:16.147Z,7.62
2019-05-05T15:29:17.626Z,7.51
2019-05-05T15:34:19.107Z,7.45
2019-05-05T15:39:20.685Z,7.47
2019-05-05T15:44:24.111Z,7.42
2019-05-05T15:49:25.737Z,7.37
2019-05-05T15:54:27.292Z,7.33
2019-05-05T15:59:28.870Z,7.34
2019-05-05T16:04:30.484Z,7.32
2019-05-05T16:09:32.015Z,7.25
2019-05-05T16:14:35.511Z,7.28
2019-05-05T16:19:39.204Z,7.26
2019-05-05T16:24:44.651Z,7.29
2019-05-05T16:29:46.072Z,7.31
2019-05-05T16:34:47.551Z,7.30
2019-05-05T16:39:49.072Z,7.28
2019-05-05T16:44:50.550Z,7.21
2019-05-05T16:49:53.814Z,7.11
2019-05-05T16:55:06.213Z,7.04
2019-05-05T17:00:08.599Z,6.97
2019-05-05T17:05:10.943Z,6.94
2019-05-05T17:10:13.862Z,6.88
2019-05-05T17:15:35.460Z,6.81
2019-05-05T17:20:55.720Z,6.74
2019-05-05T17:25:57.297Z,6.67
2019-05-05T17:30:59.091Z,6.63
2019-05-05T17:36:00.594Z,6.62
2019-05-05T17:41:04.419Z,6.63
2019-05-05T17:46:10.659Z,6.64
2019-05-05T17:51:31.407Z,6.65
2019-05-05T17:56:34.104Z,6.63
2019-05-05T18:01:35.923Z,6.64
2019-05-05T18:06:53.533Z,6.64
2019-05-05T18:11:55.002Z,6.55
2019-05-05T18:16:56.675Z,6.56
2019-05-05T18:21:58.304Z,6.56
2019-05-05T18:26:59.782Z,6.57
2019-05-05T18:32:01.260Z,6.61
2019-05-05T18:37:03.758Z,6.64
2019-05-05T18:42:16.606Z,6.60
2019-05-05T18:47:19.299Z,6.60
2019-05-05T18:52:21.175Z,6.61
2019-05-05T18:57:24.493Z,6.64
2019-05-05T19:02:34.685Z,6.68
2019-05-05T19:07:55.511Z,6.69
2019-05-05T19:12:54.183Z,6.71
2019-05-05T19:17:56.114Z,6.71
2019-05-05T19:23:05.088Z,6.72
2019-05-05T19:28:05.602Z,6.72
2019-05-05T19:33:07.188Z,6.74
2019-05-05T19:38:10.080Z,6.74
2019-05-05T19:43:13.850Z,6.74
2019-05-05T19:48:15.136Z,6.74
2019-05-05T19:53:24.615Z,6.74
2019-05-05T19:58:26.476Z,6.73
2019-05-05T20:03:28.235Z,6.70
2019-05-05T20:08:40.430Z,6.71
2019-05-05T20:13:33.419Z,6.64
2019-05-05T20:18:34.969Z,6.60
2019-05-05T20:23:36.442Z,6.56
2019-05-05T20:28:37.923Z,6.47
2019-05-05T20:33:56.534Z,6.40
2019-05-05T20:38:58.011Z,6.30
2019-05-05T20:43:59.586Z,6.25
2019-05-05T20:49:01.118Z,6.25
2019-05-05T20:54:04.733Z,6.23
2019-05-05T20:59:06.485Z,6.21
2019-05-05T21:04:07.994Z,6.19
2019-05-05T21:09:09.572Z,6.11
2019-05-05T21:14:12.167Z,6.08
2019-05-05T21:19:14.102Z,6.01
2019-05-05T21:24:15.738Z,5.96
2019-05-05T21:29:18.419Z,5.93
2019-05-05T21:34:19.996Z,5.92
2019-05-05T21:39:21.476Z,5.92
2019-05-05T21:44:23.099Z,5.88
2019-05-05T21:49:24.567Z,5.93
2019-05-05T21:54:28.090Z,5.92
2019-05-05T21:59:29.611Z,5.91
2019-05-05T22:04:33.678Z,5.95
2019-05-05T22:09:35.051Z,6.02
2019-05-05T22:14:36.542Z,6.08
2019-05-05T22:19:39.930Z,6.09
2019-05-05T22:24:41.447Z,6.03
2019-05-05T22:29:44.683Z,6.02
2019-05-05T22:34:46.612Z,6.03
2019-05-05T22:39:48.225Z,6.08
2019-05-05T22:44:49.702Z,6.03
2019-05-05T22:49:51.179Z,6.05
2019-05-05T22:54:53.133Z,6.08
2019-05-05T22:59:54.599Z,6.07
2019-05-05T23:05:00.964Z,6.08
2019-05-05T23:10:05.262Z,6.03
2019-05-05T23:15:07.848Z,6.03
2019-05-05T23:20:13.480Z,6.01
2019-05-05T23:25:15.385Z,5.93
2019-05-05T23:30:20.116Z,5.93
2019-05-05T23:35:23.872Z,5.95
2019-05-05T23:40:26.786Z,5.96
2019-05-05T23:45:28.296Z,5.96
2019-05-05T23:50:29.971Z,5.98
2019-05-05T23:55:31.485Z,5.97
